Time;durP1;ratioP1;P1;durP2;ratioP2;P2;SDS_P1;SDS_P2;PMS_P1;PMS_P2;Temp;Humidity;BMP_temperature;BMP_pressure;BME280_temperature;BME280_humidity;BME280_pressure;Samples;Min_cycle;Max_cycle;Signal;HPM_P1;HPM_P2
2022/06/01 00:00:10;;;;;;;;;;;14.00;99.90;;;11.44;100.00;100280.06;6151972;23;19925;-70
2022/06/01 00:02:40;;;;;;;;;;;14.00;99.90;;;11.44;100.00;100277.31;6125539;23;19931;-70
2022/06/01 00:05:08;;;;;;;;;;;14.00;99.90;;;11.43;100.00;100272.91;6151377;23;19920;-69
2022/06/01 00:07:35;;;;;;;;;;;14.00;99.90;;;11.43;100.00;100272.06;6152061;23;19920;-70
2022/06/01 00:10:02;;;;;;;;;;;14.00;99.90;;;11.42;100.00;100275.81;6151826;23;19946;-69
2022/06/01 00:12:30;;;;;;;;;;;14.00;99.90;;;11.42;100.00;100273.09;6125238;23;20298;-69
2022/06/01 00:14:57;;;;;;;;;;;14.00;99.90;;;11.42;100.00;100270.38;6152044;23;19923;-70
2022/06/01 00:17:25;;;;;;;;;;;14.00;99.90;;;11.40;100.00;100273.28;6125315;23;19920;-69
2022/06/01 00:19:52;;;;;;;;;;;14.00;99.90;;;11.39;100.00;100282.50;6150073;23;20429;-70
2022/06/01 00:22:19;;;;;;;;;;;14.00;99.90;;;11.37;100.00;100273.69;6151549;23;19947;-69
2022/06/01 00:24:47;;;;;;;;;;;14.00;99.90;;;11.38;100.00;100277.25;6125423;23;19972;-69
2022/06/01 00:27:16;;;;;;;;;;;14.00;99.90;;;11.39;100.00;100273.50;6151914;23;19921;-70
2022/06/01 00:29:44;;;;;;;;;;;14.00;99.90;;;11.41;100.00;100276.88;6124194;23;20007;-69
2022/06/01 00:32:14;;;;;;;;;;;14.00;99.90;;;11.38;100.00;100274.53;6151411;23;20264;-70
2022/06/01 00:34:42;;;;;;;;;;;14.00;99.90;;;11.39;100.00;100277.06;6151581;23;19928;-70
2022/06/01 00:37:09;;;;;;;;;;;14.00;99.90;;;11.37;100.00;100281.03;6151404;23;20001;-70
2022/06/01 00:39:37;;;;;;;;;;;14.00;99.90;;;11.34;100.00;100274.91;6150739;23;19959;-70
2022/06/01 00:42:13;;;;;;;;;;;14.00;99.90;;;11.36;100.00;100277.44;6151835;23;19916;-70
2022/06/01 00:44:40;;;;;;;;;;;14.00;99.90;;;11.34;100.00;100277.63;6151637;23;19921;-70
2022/06/01 00:47:10;;;;;;;;;;;14.00;99.90;;;11.32;100.00;100267.97;6152015;23;19926;-70
2022/06/01 00:49:38;;;;;;;;;;;13.90;99.90;;;11.31;100.00;100272.59;6150227;23;19971;-69
2022/06/01 00:52:05;;;;;;;;;;;14.00;99.90;;;11.32;100.00;100271.53;6151696;23;20278;-70
2022/06/01 00:54:32;;;;;;;;;;;13.90;99.90;;;11.30;100.00;100259.16;6150761;23;19995;-69
2022/06/01 00:57:04;;;;;;;;;;;13.90;99.90;;;11.27;100.00;100276.75;6151715;23;19917;-69
2022/06/01 00:59:36;;;;;;;;;;;13.90;99.90;;;11.25;100.00;100276.09;6150292;23;19931;-69
2022/06/01 01:02:04;;;;;;;;;;;13.90;99.90;;;11.23;100.00;100278.19;6151054;23;20339;-70
2022/06/01 01:04:34;;;;;;;;;;;13.80;99.90;;;11.19;100.00;100279.59;6151368;23;19924;-70
2022/06/01 01:07:06;;;;;;;;;;;13.80;99.90;;;11.17;100.00;100278.94;6125471;23;19930;-69
2022/06/01 01:09:34;;;;;;;;;;;13.80;99.90;;;11.17;100.00;100281.66;6123656;23;20244;-70
2022/06/01 01:12:05;;;;;;;;;;;13.80;99.90;;;11.15;100.00;100275.56;6151510;23;19921;-70
2022/06/01 01:14:34;;;;;;;;;;;13.70;99.90;;;11.14;100.00;100272.00;6125541;23;20007;-70
2022/06/01 01:17:04;;;;;;;;;;;13.70;99.90;;;11.12;100.00;100275.97;6151680;23;19920;-70
2022/06/01 01:19:35;;;;;;;;;;;13.70;99.90;;;11.10;100.00;100278.03;6150640;23;19925;-70
2022/06/01 01:22:11;;;;;;;;;;;13.60;99.90;;;11.05;100.00;100277.78;6151543;23;19967;-70
2022/06/01 01:24:48;;;;;;;;;;;13.60;99.90;;;11.01;100.00;100280.03;6151588;23;19927;-70
2022/06/01 01:27:17;;;;;;;;;;;13.60;99.90;;;10.99;100.00;100275.84;6151210;23;19920;-70
2022/06/01 01:29:45;;;;;;;;;;;13.60;99.90;;;10.98;100.00;100279.59;6151811;23;20012;-69
2022/06/01 01:32:14;;;;;;;;;;;13.60;99.90;;;10.94;100.00;100274.50;6152761;23;20295;-70
2022/06/01 01:34:42;;;;;;;;;;;13.50;99.90;;;10.92;100.00;100273.88;6153226;23;20328;-69
2022/06/01 01:37:17;;;;;;;;;;;13.50;99.90;;;10.91;100.00;100274.91;6153512;23;19927;-69
2022/06/01 01:39:45;;;;;;;;;;;13.50;99.90;;;10.90;100.00;100261.50;6152105;23;19923;-70
2022/06/01 01:42:12;;;;;;;;;;;13.50;99.90;;;10.83;100.00;100261.41;6152585;23;20019;-69
2022/06/01 01:44:47;;;;;;;;;;;13.50;99.90;;;10.80;100.00;100255.53;6153288;23;19924;-69
2022/06/01 01:47:14;;;;;;;;;;;13.40;99.90;;;10.79;100.00;100265.56;6153562;23;19920;-70
2022/06/01 01:49:42;;;;;;;;;;;13.40;99.90;;;10.75;100.00;100265.09;6152202;23;19935;-70
2022/06/01 01:52:11;;;;;;;;;;;13.40;99.90;;;10.72;100.00;100270.09;6153338;23;20411;-70
2022/06/01 01:54:47;;;;;;;;;;;13.30;99.90;;;10.71;100.00;100262.97;6153115;23;19959;-70
2022/06/01 01:57:23;;;;;;;;;;;13.30;99.90;;;10.67;100.00;100262.50;6127373;23;19920;-70
2022/06/01 02:00:00;;;;;;;;;;;13.30;99.90;;;10.70;100.00;100269.41;6151940;23;20288;-70
2022/06/01 02:02:35;;;;;;;;;;;13.30;99.90;;;10.66;100.00;100268.13;6152783;23;19943;-69
2022/06/01 02:08:00;;;;;;;;;;;13.20;99.90;;;10.62;100.00;100258.66;6152199;23;19927;-70
2022/06/01 02:13:14;;;;;;;;;;;13.20;99.90;;;10.60;100.00;100255.28;6152724;23;19927;-69
2022/06/01 02:15:43;;;;;;;;;;;13.20;99.90;;;10.59;100.00;100259.06;6152189;23;19942;-69
2022/06/01 02:18:13;;;;;;;;;;;13.10;99.90;;;10.56;100.00;100260.25;6152009;23;19923;-70
2022/06/01 02:20:43;;;;;;;;;;;13.10;99.90;;;10.52;100.00;100262.53;6152747;23;20282;-70
2022/06/01 02:23:11;;;;;;;;;;;13.10;99.90;;;10.52;100.00;100264.41;6152895;23;19921;-70
2022/06/01 02:25:39;;;;;;;;;;;13.10;99.90;;;10.47;100.00;100265.00;6153126;23;19927;-70
2022/06/01 02:28:07;;;;;;;;;;;13.10;99.90;;;10.44;100.00;100262.63;6151926;23;19920;-70
2022/06/01 02:30:37;;;;;;;;;;;13.10;99.90;;;10.42;100.00;100261.97;6152305;23;19925;-70
2022/06/01 02:33:09;;;;;;;;;;;13.10;99.90;;;10.40;100.00;100266.78;6152794;23;19944;-70
2022/06/01 02:35:40;;;;;;;;;;;13.00;99.90;;;10.37;100.00;100259.81;6152979;23;19962;-70
2022/06/01 02:38:12;;;;;;;;;;;13.00;99.90;;;10.37;100.00;100261.69;6152000;23;20371;-69
2022/06/01 02:40:39;;;;;;;;;;;13.00;99.90;;;10.35;100.00;100266.50;6152837;23;19979;-70
2022/06/01 02:43:06;;;;;;;;;;;13.00;99.90;;;10.31;100.00;100262.47;6152081;23;19987;-70
2022/06/01 02:45:34;;;;;;;;;;;13.00;99.90;;;10.30;100.00;100274.34;6152189;23;19920;-70
2022/06/01 02:48:02;;;;;;;;;;;12.90;99.90;;;10.27;100.00;100272.00;6151650;23;20302;-70
2022/06/01 02:50:32;;;;;;;;;;;12.90;99.90;;;10.26;100.00;100275.75;6152250;23;19917;-69
2022/06/01 02:53:00;;;;;;;;;;;12.90;99.90;;;10.25;100.00;100274.06;6152506;23;19921;-69
2022/06/01 02:55:29;;;;;;;;;;;12.80;99.90;;;10.22;100.00;100279.88;6152479;23;20320;-70
2022/06/01 02:57:56;;;;;;;;;;;12.80;99.90;;;10.20;100.00;100287.38;6151902;23;19950;-69
2022/06/01 03:00:26;;;;;;;;;;;12.80;99.90;;;10.16;100.00;100282.31;6152220;23;20006;-69
2022/06/01 03:02:55;;;;;;;;;;;12.80;99.90;;;10.15;100.00;100287.97;6152190;23;19952;-69
2022/06/01 03:05:24;;;;;;;;;;;12.80;99.90;;;10.13;100.00;100288.16;6152626;23;19920;-70
2022/06/01 03:07:53;;;;;;;;;;;12.80;99.90;;;10.12;100.00;100283.72;6151623;23;20003;-69
2022/06/01 03:10:21;;;;;;;;;;;12.80;99.90;;;10.11;100.00;100284.78;6152841;23;20343;-69
2022/06/01 03:12:48;;;;;;;;;;;12.80;99.90;;;10.11;100.00;100286.63;6151436;23;19924;-70
2022/06/01 03:15:17;;;;;;;;;;;12.80;99.90;;;10.12;100.00;100286.44;6152062;23;19921;-70
2022/06/01 03:17:44;;;;;;;;;;;12.80;99.90;;;10.14;100.00;100283.53;6151395;23;19921;-69
2022/06/01 03:20:17;;;;;;;;;;;12.80;99.90;;;10.13;100.00;100281.88;6151956;23;19967;-70
2022/06/01 03:22:45;;;;;;;;;;;12.80;99.90;;;10.11;100.00;100290.22;6152307;23;20002;-69
2022/06/01 03:25:15;;;;;;;;;;;12.80;99.90;;;10.11;100.00;100286.63;6151710;23;19927;-69
2022/06/01 03:27:42;;;;;;;;;;;12.80;99.90;;;10.12;100.00;100286.44;6151569;23;19927;-70
2022/06/01 03:30:12;;;;;;;;;;;12.80;99.90;;;10.11;100.00;100284.78;6152098;23;19917;-70
2022/06/01 03:32:39;;;;;;;;;;;12.80;99.90;;;10.11;100.00;100284.78;6152178;23;20168;-70
2022/06/01 03:35:07;;;;;;;;;;;12.80;99.90;;;10.13;100.00;100280.00;6152132;23;20669;-70
2022/06/01 03:37:34;;;;;;;;;;;12.80;99.90;;;10.13;100.00;100282.69;6151694;23;19999;-70
2022/06/01 03:40:01;;;;;;;;;;;12.80;99.90;;;10.14;100.00;100289.81;6151904;23;19917;-70
2022/06/01 03:42:31;;;;;;;;;;;12.80;99.90;;;10.17;100.00;100294.88;6152162;23;19970;-70
2022/06/01 03:47:42;;;;;;;;;;;12.80;99.90;;;10.15;100.00;100301.56;6151565;23;19999;-70
2022/06/01 03:50:10;;;;;;;;;;;12.80;99.90;;;10.15;100.00;100302.41;6152244;23;19954;-70
2022/06/01 03:52:37;;;;;;;;;;;12.80;99.90;;;10.15;100.00;100296.97;6150726;23;19916;-70
2022/06/01 03:55:08;;;;;;;;;;;12.80;99.90;;;10.17;100.00;100310.38;6151995;23;19952;-70
2022/06/01 03:57:36;;;;;;;;;;;12.80;99.90;;;10.18;100.00;100301.16;6151395;23;20299;-70
2022/06/01 04:00:04;;;;;;;;;;;12.80;99.90;;;10.18;100.00;100306.59;6125109;23;20419;-69
2022/06/01 04:02:38;;;;;;;;;;;12.90;99.90;;;10.16;100.00;100309.50;6151443;23;19995;-70
2022/06/01 04:05:06;;;;;;;;;;;12.80;99.90;;;10.20;100.00;100309.16;6125754;23;20023;-70
2022/06/01 04:07:34;;;;;;;;;;;12.80;99.90;;;10.21;100.00;100310.84;6151570;23;19929;-70
2022/06/01 04:10:02;;;;;;;;;;;12.80;99.90;;;10.22;100.00;100313.34;6151691;23;19940;-69
2022/06/01 04:12:29;;;;;;;;;;;12.90;99.90;;;10.21;100.00;100317.13;6152069;23;19927;-70
2022/06/01 04:14:58;;;;;;;;;;;12.90;99.90;;;10.22;100.00;100320.69;6149570;23;19927;-69
2022/06/01 04:17:25;;;;;;;;;;;12.90;99.90;;;10.21;100.00;100317.13;6148723;23;20357;-70
2022/06/01 04:19:52;;;;;;;;;;;12.80;99.90;;;10.24;100.00;100315.88;6150741;23;19938;-70
2022/06/01 04:22:19;;;;;;;;;;;12.90;99.90;;;10.24;100.00;100315.88;6151738;23;19926;-69
2022/06/01 04:24:47;;;;;;;;;;;12.90;99.90;;;10.25;100.00;100313.00;6151839;23;19995;-70
2022/06/01 04:27:14;;;;;;;;;;;12.90;99.90;;;10.27;100.00;100320.97;6152269;23;19924;-70
2022/06/01 04:29:41;;;;;;;;;;;12.90;99.90;;;10.28;100.00;100319.91;6124460;23;20252;-70
2022/06/01 04:32:14;;;;;;;;;;;12.90;99.90;;;10.32;100.00;100315.84;6125300;23;20259;-69
2022/06/01 04:34:41;;;;;;;;;;;12.90;99.90;;;10.32;100.00;100316.69;6151341;23;20351;-70
2022/06/01 04:37:08;;;;;;;;;;;12.90;99.90;;;10.34;100.00;100322.78;6151636;23;19920;-70
2022/06/01 04:39:35;;;;;;;;;;;13.00;99.90;;;10.37;100.00;100327.00;6150882;23;19959;-70
2022/06/01 04:42:02;;;;;;;;;;;13.00;99.90;;;10.39;100.00;100319.47;6151117;23;20332;-70
2022/06/01 04:44:29;;;;;;;;;;;13.00;99.90;;;10.42;100.00;100324.56;6151864;23;19954;-71
2022/06/01 04:46:56;;;;;;;;;;;13.00;99.90;;;10.42;100.00;100316.41;6151744;23;19921;-72
2022/06/01 04:49:24;;;;;;;;;;;13.00;99.90;;;10.45;100.00;100324.19;6150858;23;19987;-71
2022/06/01 04:51:51;;;;;;;;;;;13.10;99.90;;;10.49;100.00;100314.63;6151189;23;19999;-71
2022/06/01 04:54:18;;;;;;;;;;;13.10;99.90;;;10.54;100.00;100319.47;6151693;23;19927;-70
2022/06/01 04:56:45;;;;;;;;;;;13.20;99.90;;;10.59;100.00;100324.38;6150026;23;20330;-70
2022/06/01 04:59:16;;;;;;;;;;;13.20;99.90;;;10.65;100.00;100318.16;6150776;23;19987;-71
2022/06/01 05:01:43;;;;;;;;;;;13.20;99.90;;;10.70;100.00;100326.56;6151353;23;20003;-70
2022/06/01 05:04:11;;;;;;;;;;;13.40;99.90;;;10.75;100.00;100324.13;6153105;23;19944;-70
2022/06/01 05:06:39;;;;;;;;;;;13.40;99.90;;;10.80;100.00;100315.41;6153219;23;19994;-70
2022/06/01 05:09:06;;;;;;;;;;;13.50;99.90;;;10.84;100.00;100314.84;6152554;23;19920;-70
2022/06/01 05:11:34;;;;;;;;;;;13.60;99.90;;;10.89;100.00;100309.66;6153047;23;19967;-70
2022/06/01 05:14:01;;;;;;;;;;;13.60;99.90;;;10.97;100.00;100327.75;6153630;23;20343;-71
2022/06/01 05:16:28;;;;;;;;;;;13.60;99.90;;;11.02;100.00;100321.72;6153303;23;20019;-71
2022/06/01 05:18:55;;;;;;;;;;;13.70;99.90;;;11.08;100.00;100318.22;6152850;23;20011;-71
2022/06/01 05:21:22;;;;;;;;;;;13.80;99.90;;;11.15;100.00;100319.16;6153417;23;20383;-71
2022/06/01 05:23:51;;;;;;;;;;;13.80;99.90;;;11.20;100.00;100311.25;6153731;23;20030;-71
2022/06/01 05:26:18;;;;;;;;;;;13.90;99.90;;;11.26;100.00;100315.09;6152953;23;19928;-71
2022/06/01 05:28:45;;;;;;;;;;;13.90;99.90;;;11.30;100.00;100316.38;6152872;23;19924;-71
2022/06/01 05:31:13;;;;;;;;;;;14.00;99.90;;;11.36;100.00;100318.31;6147695;23;19926;-71
2022/06/01 05:33:43;;;;;;;;;;;14.00;99.90;;;11.42;100.00;100314.81;6152187;23;19948;-71
2022/06/01 05:36:10;;;;;;;;;;;14.10;99.90;;;11.46;100.00;100320.72;6152649;23;20011;-71
2022/06/01 05:38:37;;;;;;;;;;;14.10;99.90;;;11.49;100.00;100318.44;6152103;23;19917;-71
2022/06/01 05:41:07;;;;;;;;;;;14.10;99.90;;;11.54;100.00;100313.25;6152857;23;19921;-71
2022/06/01 05:43:34;;;;;;;;;;;14.10;99.90;;;11.58;100.00;100316.44;6152420;23;19917;-71
2022/06/01 05:46:02;;;;;;;;;;;14.20;99.90;;;11.63;100.00;100308.53;6152664;23;19926;-71
2022/06/01 05:48:29;;;;;;;;;;;14.30;99.90;;;11.68;100.00;100316.94;6152356;23;20347;-71
2022/06/01 05:50:56;;;;;;;;;;;14.30;99.90;;;11.73;100.00;100313.63;6152893;23;20254;-71
2022/06/01 05:53:23;;;;;;;;;;;14.40;99.90;;;11.78;100.00;100321.19;6152663;23;19951;-71
2022/06/01 05:55:50;;;;;;;;;;;14.40;99.90;;;11.83;100.00;100316.84;6153001;23;20407;-71
2022/06/01 05:58:20;;;;;;;;;;;14.50;99.90;;;11.88;100.00;100317.09;6150924;23;20340;-71
2022/06/01 06:00:49;;;;;;;;;;;14.60;99.90;;;11.94;100.00;100318.22;6152739;23;19920;-71
2022/06/01 06:03:18;;;;;;;;;;;14.70;99.90;;;12.02;100.00;100314.50;6152323;23;19931;-71
2022/06/01 06:08:29;;;;;;;;;;;15.20;99.90;;;12.27;100.00;100310.25;6151047;23;19940;-71
2022/06/01 06:10:56;;;;;;;;;;;15.60;99.90;;;12.48;100.00;100313.94;6151335;23;20358;-71
2022/06/01 06:13:25;;;;;;;;;;;16.00;99.90;;;12.86;100.00;100319.78;6150773;23;19916;-71
2022/06/01 06:15:52;;;;;;;;;;;16.40;99.90;;;14.06;100.00;100322.69;6150222;23;19971;-72
2022/06/01 06:18:19;;;;;;;;;;;16.90;99.90;;;15.73;100.00;100326.63;6150087;23;19920;-72
2022/06/01 06:20:46;;;;;;;;;;;17.40;99.90;;;16.89;97.84;100327.78;6150894;23;20409;-72
2022/06/01 06:23:14;;;;;;;;;;;18.00;99.90;;;17.68;92.14;100324.94;6149537;23;19917;-72
2022/06/01 06:25:41;;;;;;;;;;;18.60;99.90;;;18.23;87.00;100326.59;6150596;23;19921;-72
2022/06/01 06:28:08;;;;;;;;;;;19.20;99.90;;;18.46;84.88;100333.19;6150317;23;19917;-74
2022/06/01 06:30:38;;;;;;;;;;;19.90;99.90;;;18.34;84.35;100345.03;6151693;23;19921;-74
2022/06/01 06:33:06;;;;;;;;;;;20.50;99.90;;;18.00;84.11;100345.88;6151530;23;19920;-74
2022/06/01 06:35:34;;;;;;;;;;;21.10;98.00;;;17.64;85.73;100336.69;6152524;23;19916;-74
2022/06/01 06:38:01;;;;;;;;;;;21.50;95.40;;;17.41;85.48;100343.78;6150713;23;19951;-74
2022/06/01 06:40:28;;;;;;;;;;;22.00;92.00;;;17.33;85.78;100350.47;6153083;23;20003;-75
2022/06/01 06:42:55;;;;;;;;;;;22.40;88.80;;;17.43;84.11;100352.66;6153072;23;19999;-74
2022/06/01 06:45:22;;;;;;;;;;;22.70;86.50;;;17.60;86.30;100352.81;6153009;23;20023;-74
2022/06/01 06:47:51;;;;;;;;;;;23.00;84.10;;;18.01;83.43;100353.03;6151837;23;20452;-74
2022/06/01 06:50:19;;;;;;;;;;;23.10;78.40;;;18.50;80.30;100356.41;6152825;23;19928;-75
2022/06/01 06:52:46;;;;;;;;;;;22.90;75.60;;;18.60;77.77;100358.56;6152700;23;19927;-74
2022/06/01 06:55:14;;;;;;;;;;;22.70;76.00;;;18.07;81.65;100360.38;6152749;23;19916;-75
2022/06/01 06:57:43;;;;;;;;;;;22.40;76.90;;;17.63;84.20;100351.50;6151804;23;20359;-74
2022/06/01 07:00:11;;;;;;;;;;;22.10;77.90;;;17.36;84.38;100360.16;6152316;23;19921;-75
2022/06/01 07:02:38;;;;;;;;;;;21.80;78.40;;;17.13;87.06;100352.66;6152502;23;19947;-74
2022/06/01 07:05:08;;;;;;;;;;;21.60;79.90;;;16.97;87.18;100359.63;6152440;23;20019;-74
2022/06/01 07:07:35;;;;;;;;;;;21.30;80.60;;;16.91;86.91;100366.06;6151919;23;20004;-74
2022/06/01 07:10:02;;;;;;;;;;;21.10;81.20;;;16.84;86.90;100370.78;6152095;23;19921;-74
2022/06/01 07:12:29;;;;;;;;;;;20.80;81.80;;;16.77;87.71;100379.06;6152673;23;20317;-74
2022/06/01 07:14:56;;;;;;;;;;;20.60;82.80;;;16.72;87.92;100385.25;6152778;23;19952;-74
2022/06/01 07:17:24;;;;;;;;;;;20.40;83.70;;;16.63;90.53;100380.28;6152688;23;19920;-74
2022/06/01 07:19:54;;;;;;;;;;;20.20;85.30;;;16.51;90.08;100382.97;6151437;23;19928;-75
2022/06/01 07:22:23;;;;;;;;;;;20.00;85.60;;;16.47;92.33;100376.22;6152511;23;19920;-74
2022/06/01 07:24:50;;;;;;;;;;;19.80;86.50;;;16.42;91.78;100374.16;6152519;23;20401;-73
2022/06/01 07:27:17;;;;;;;;;;;19.70;87.50;;;16.41;93.29;100378.81;6151525;23;19948;-74
2022/06/01 07:29:44;;;;;;;;;;;19.60;87.90;;;16.42;91.56;100369.50;6151518;23;19923;-74
2022/06/01 07:32:11;;;;;;;;;;;19.40;88.30;;;16.44;93.06;100372.03;6152038;23;19924;-74
2022/06/01 07:34:38;;;;;;;;;;;19.40;89.10;;;16.50;93.51;100375.78;6152604;23;20305;-75
2022/06/01 07:45:17;;;;;;;;;;;19.20;91.10;;;16.52;93.29;100376.38;6151843;23;20161;-75
2022/06/01 07:47:44;;;;;;;;;;;19.20;91.30;;;16.55;91.82;100375.94;6151015;23;19943;-75
2022/06/01 07:50:11;;;;;;;;;;;19.20;91.70;;;16.56;90.35;100374.84;6151966;23;19987;-74
2022/06/01 07:52:38;;;;;;;;;;;19.20;91.30;;;16.51;89.82;100372.81;6152254;23;19999;-75
2022/06/01 07:55:09;;;;;;;;;;;19.10;91.60;;;16.51;90.76;100371.97;6152012;23;20374;-75
2022/06/01 07:57:37;;;;;;;;;;;19.10;91.70;;;16.52;91.34;100370.88;6151792;23;19924;-74
2022/06/01 08:00:05;;;;;;;;;;;19.10;91.60;;;16.55;92.42;100379.53;6151753;23;19920;-74
2022/06/01 08:02:39;;;;;;;;;;;19.20;92.30;;;16.56;89.66;100378.47;6152230;23;19920;-74
2022/06/01 08:05:07;;;;;;;;;;;19.10;92.10;;;16.54;89.48;100387.97;6152031;23;19920;-75
2022/06/01 08:07:34;;;;;;;;;;;19.10;91.80;;;16.53;89.31;100381.66;6151255;23;20024;-75
2022/06/01 08:10:02;;;;;;;;;;;19.10;91.60;;;16.55;89.12;100384.19;6151281;23;19999;-75
2022/06/01 08:15:14;;;;;;;;;;;19.10;93.20;;;16.65;89.35;100387.22;6150910;23;19917;-75
2022/06/01 08:17:44;;;;;;;;;;;19.10;92.90;;;16.66;89.38;100388.94;6150024;23;20320;-75
2022/06/01 08:20:12;;;;;;;;;;;19.10;92.70;;;16.70;89.99;100381.06;6150421;23;19923;-74
2022/06/01 08:22:40;;;;;;;;;;;19.20;92.60;;;16.73;87.50;100392.41;6151010;23;19921;-75
2022/06/01 08:25:07;;;;;;;;;;;19.20;92.70;;;16.76;87.90;100396.63;6151170;23;20007;-75
2022/06/01 08:27:36;;;;;;;;;;;19.20;92.10;;;16.72;86.54;100393.50;6150537;23;19959;-75
2022/06/01 08:30:04;;;;;;;;;;;19.20;91.60;;;16.68;85.41;100394.16;6150563;23;19943;-75
2022/06/01 08:32:31;;;;;;;;;;;19.20;91.50;;;16.68;86.79;100395.03;6150780;23;19999;-74
2022/06/01 08:34:58;;;;;;;;;;;19.10;91.60;;;16.71;90.51;100393.72;6151138;23;20240;-75
2022/06/01 08:37:25;;;;;;;;;;;19.20;92.60;;;16.70;88.23;100403.06;6149946;23;19916;-75
2022/06/01 08:39:52;;;;;;;;;;;19.20;91.60;;;16.69;88.40;100407.69;6149463;23;19921;-75
2022/06/01 08:42:23;;;;;;;;;;;19.20;92.00;;;16.69;87.28;100402.19;6150776;23;19928;-74
2022/06/01 08:44:52;;;;;;;;;;;19.20;91.90;;;16.64;87.62;100404.81;6150006;23;20343;-74
2022/06/01 08:47:26;;;;;;;;;;;19.10;91.70;;;16.60;88.40;100400.81;6151086;23;20306;-75
2022/06/01 08:49:53;;;;;;;;;;;19.10;91.70;;;16.60;88.69;100396.16;6150011;23;19921;-75
2022/06/01 08:52:22;;;;;;;;;;;19.10;92.30;;;16.66;87.43;100394.41;6150361;23;20090;-74
2022/06/01 08:54:50;;;;;;;;;;;19.10;92.50;;;16.69;88.20;100396.69;6123792;23;20328;-74
2022/06/01 08:57:23;;;;;;;;;;;19.10;92.60;;;16.71;90.25;100391.81;6148209;23;20535;-75
2022/06/01 08:59:55;;;;;;;;;;;19.20;93.30;;;16.70;88.02;100406.63;6149425;23;19921;-75
2022/06/01 09:02:35;;;;;;;;;;;19.20;92.60;;;16.63;86.29;100400.34;6149966;23;19927;-75
2022/06/01 09:05:09;;;;;;;;;;;19.10;91.60;;;16.62;86.91;100406.94;6150536;23;20014;-75
2022/06/01 09:07:40;;;;;;;;;;;19.10;92.20;;;16.59;84.51;100410.97;6150425;23;19920;-75
2022/06/01 09:10:36;;;;;;;;;;;19.10;91.80;;;16.55;83.08;100407.00;6150083;23;19990;-75
2022/06/01 09:13:05;;;;;;;;;;;19.00;91.50;;;16.52;84.01;100410.19;6150168;23;19920;-75
2022/06/01 09:15:41;;;;;;;;;;;19.00;91.50;;;16.55;87.65;100409.75;6150587;23;19920;-75
2022/06/01 09:18:08;;;;;;;;;;;19.00;92.30;;;16.57;86.59;100404.03;6149523;23;19978;-75
2022/06/01 09:23:19;;;;;;;;;;;19.00;91.80;;;16.62;87.27;100409.69;6151343;23;19928;-75
2022/06/01 09:25:51;;;;;;;;;;;19.10;92.30;;;16.66;87.12;100408.16;6151614;23;19925;-75
2022/06/01 09:28:20;;;;;;;;;;;19.10;92.50;;;16.70;86.92;100411.28;6150818;23;19924;-75
2022/06/01 09:30:59;;;;;;;;;;;19.10;92.40;;;16.71;86.65;100411.03;6151708;23;19931;-75
2022/06/01 09:33:28;;;;;;;;;;;19.20;92.10;;;16.75;86.58;100417.78;6151645;23;19940;-75
2022/06/01 09:36:13;;;;;;;;;;;19.20;92.40;;;16.80;87.52;100415.19;6151488;23;20336;-75
2022/06/01 09:38:42;;;;;;;;;;;19.20;92.60;;;16.85;87.98;100402.69;6150864;23;19960;-75
2022/06/01 09:41:12;;;;;;;;;;;19.40;92.70;;;16.92;87.85;100406.22;6151569;23;19926;-74
2022/06/01 09:43:41;;;;;;;;;;;19.40;92.80;;;16.97;88.39;100409.13;6151402;23;19987;-74
2022/06/01 09:46:09;;;;;;;;;;;19.50;93.00;;;17.01;85.99;100396.59;6150945;23;20262;-72
2022/06/01 09:48:39;;;;;;;;;;;19.60;91.90;;;17.00;84.04;100392.13;6148816;23;20015;-72
2022/06/01 09:51:14;;;;;;;;;;;19.60;91.70;;;17.01;81.92;100393.84;6152615;23;20304;-72
2022/06/01 09:53:43;;;;;;;;;;;19.50;91.00;;;17.03;82.15;100397.19;6152242;23;19917;-72
2022/06/01 09:56:10;;;;;;;;;;;19.60;90.40;;;17.02;80.85;100390.03;6152992;23;19926;-72
2022/06/01 10:07:00;;;;;;;;;;;19.60;90.70;;;17.13;81.33;100386.47;6152722;23;19931;-71
2022/06/01 10:09:29;;;;;;;;;;;19.60;90.00;;;17.18;82.84;100389.38;6151138;23;20414;-71
2022/06/01 10:11:57;;;;;;;;;;;19.60;90.30;;;17.19;81.71;100385.56;6151915;23;19983;-71
2022/06/01 10:14:27;;;;;;;;;;;19.60;89.80;;;17.23;82.10;100385.09;6152660;23;19948;-71
2022/06/01 10:17:17;;;;;;;;;;;19.70;89.90;;;17.23;80.04;100382.34;6153119;23;19966;-71
2022/06/01 10:19:49;;;;;;;;;;;19.70;89.60;;;17.23;77.57;100385.09;6151736;23;19948;-71
2022/06/01 10:22:24;;;;;;;;;;;19.70;88.80;;;17.21;78.71;100379.84;6152483;23;19930;-70
2022/06/01 10:24:55;;;;;;;;;;;19.70;88.80;;;17.25;80.30;100381.06;6152831;23;19943;-71
2022/06/01 10:27:26;;;;;;;;;;;19.70;89.20;;;17.28;80.72;100402.56;6126380;23;19916;-71
2022/06/01 10:30:03;;;;;;;;;;;19.80;89.20;;;17.30;79.66;100388.59;6151463;23;19921;-71
2022/06/01 10:32:36;;;;;;;;;;;19.80;88.90;;;17.30;80.09;100389.44;6152976;23;20260;-71
2022/06/01 10:35:15;;;;;;;;;;;19.80;88.80;;;17.35;81.58;100388.75;6151212;23;19959;-71
2022/06/01 10:37:52;;;;;;;;;;;19.80;88.90;;;17.39;80.07;100381.72;6151965;23;19940;-71
2022/06/01 10:40:23;;;;;;;;;;;19.90;88.60;;;17.42;80.68;100383.13;6152616;23;19948;-71
2022/06/01 10:45:45;;;;;;;;;;;19.90;88.00;;;17.40;77.58;100386.13;6150637;23;19946;-75
2022/06/01 10:48:16;;;;;;;;;;;19.90;87.60;;;17.43;77.72;100393.09;6151149;23;20374;-74
2022/06/01 10:50:48;;;;;;;;;;;19.90;87.30;;;17.46;73.63;100396.22;6152899;23;19944;-74
2022/06/01 10:53:19;;;;;;;;;;;19.90;85.60;;;17.49;75.59;100392.97;6152050;23;19921;-75
2022/06/01 10:55:48;;;;;;;;;;;19.90;86.80;;;17.51;77.51;100390.84;6152301;23;20007;-75
2022/06/01 10:58:19;;;;;;;;;;;20.00;87.00;;;17.54;77.06;100393.13;6151422;23;19924;-75
2022/06/01 11:00:50;;;;;;;;;;;20.00;87.10;;;17.61;78.34;100387.53;6152283;23;20004;-75
2022/06/01 11:03:36;;;;;;;;;;;20.10;87.40;;;17.66;77.91;100386.81;6151028;23;19924;-74
2022/06/01 11:06:11;;;;;;;;;;;20.10;87.20;;;17.67;75.88;100381.09;6152087;23;19920;-74
2022/06/01 11:08:49;;;;;;;;;;;20.10;86.70;;;17.68;74.85;100395.69;6151074;23;19971;-74
2022/06/01 11:11:20;;;;;;;;;;;20.20;86.40;;;17.67;74.51;100397.59;6152191;23;19971;-74
2022/06/01 11:13:59;;;;;;;;;;;20.20;86.20;;;17.67;73.12;100408.63;6151947;23;20251;-74
2022/06/01 11:16:35;;;;;;;;;;;20.10;85.60;;;17.63;73.07;100410.16;6151591;23;19927;-70
2022/06/01 11:19:12;;;;;;;;;;;20.10;85.10;;;17.57;69.77;100400.94;6150516;23;19923;-70
2022/06/01 11:21:49;;;;;;;;;;;20.00;84.10;;;17.55;70.43;100410.47;6149583;23;19932;-70
2022/06/01 11:24:46;;;;;;;;;;;20.00;84.30;;;17.48;71.13;100410.56;6123381;23;20216;-70
2022/06/01 11:27:26;;;;;;;;;;;19.90;83.90;;;17.44;71.90;100419.50;6148448;23;20011;-69
2022/06/01 11:30:03;;;;;;;;;;;19.80;84.20;;;17.39;72.86;100420.22;6149225;23;19924;-70
2022/06/01 11:32:35;;;;;;;;;;;19.80;84.50;;;17.33;71.22;100423.91;6150076;23;19951;-70
2022/06/01 11:35:08;;;;;;;;;;;19.70;84.10;;;17.30;71.72;100424.34;6150520;23;20306;-70
2022/06/01 11:37:40;;;;;;;;;;;19.60;84.40;;;17.24;73.75;100419.78;6152048;23;19920;-70
2022/06/01 11:40:12;;;;;;;;;;;19.50;84.90;;;17.19;73.72;100435.06;6151972;23;19921;-70
2022/06/01 11:42:41;;;;;;;;;;;19.50;85.10;;;17.16;75.11;100434.69;6152416;23;19952;-70
2022/06/01 11:45:12;;;;;;;;;;;19.50;85.50;;;17.11;73.65;100431.78;6152226;23;19925;-70
2022/06/01 11:47:46;;;;;;;;;;;19.40;85.30;;;17.05;74.46;100436.28;6151547;23;19930;-70
2022/06/01 11:50:24;;;;;;;;;;;19.40;85.40;;;16.99;73.09;100431.72;6151338;23;19920;-70